createdAt,value
2023-09-21T00:00:58.498Z,8.02
2023-09-21T00:05:56.023Z,7.82
2023-09-21T00:10:51.894Z,8.45
2023-09-21T00:15:45.477Z,7.90
2023-09-21T00:20:44.111Z,8.20
2023-09-21T00:25:38.211Z,8.25
2023-09-21T00:30:32.912Z,7.43
2023-09-21T00:35:28.663Z,7.95
2023-09-21T00:40:23.740Z,7.85
2023-09-21T00:45:19.494Z,8.75
2023-09-21T00:50:15.528Z,8.88
2023-09-21T00:55:09.975Z,8.75
2023-09-21T01:00:07.905Z,7.97
2023-09-21T01:05:02.301Z,7.05
2023-09-21T01:09:58.070Z,8.00
2023-09-21T01:15:10.536Z,8.32
2023-09-21T01:20:20.089Z,8.00
2023-09-21T01:25:16.165Z,8.23
2023-09-21T01:30:13.268Z,7.63
2023-09-21T01:35:08.992Z,7.57
2023-09-21T01:40:02.793Z,8.55
2023-09-21T01:44:57.681Z,7.82
2023-09-21T01:49:51.262Z,8.55
2023-09-21T01:54:44.485Z,7.65
2023-09-21T01:59:37.835Z,8.60
2023-09-21T02:04:32.800Z,7.90
2023-09-21T02:09:27.510Z,9.23
2023-09-21T02:14:21.363Z,7.80
2023-09-21T02:19:15.475Z,8.63
2023-09-21T02:24:10.826Z,8.38
2023-09-21T02:29:05.610Z,7.72
2023-09-21T02:33:59.444Z,8.05
2023-09-21T02:38:52.652Z,7.60
2023-09-21T02:43:47.887Z,6.65
2023-09-21T02:48:42.610Z,6.80
2023-09-21T02:53:36.341Z,7.15
2023-09-21T02:58:29.741Z,8.15
2023-09-21T03:03:24.874Z,8.57
2023-09-21T03:08:19.846Z,8.80
2023-09-21T03:13:18.692Z,9.63
2023-09-21T03:18:16.414Z,8.93
2023-09-21T03:23:13.448Z,8.98
2023-09-21T03:28:11.557Z,8.05
2023-09-21T03:33:06.845Z,8.48
2023-09-21T03:38:00.743Z,8.15
2023-09-21T03:42:58.533Z,8.57
2023-09-21T03:47:53.134Z,9.52
2023-09-21T03:52:48.849Z,9.80
2023-09-21T03:57:42.349Z,10.35
2023-09-21T04:02:38.958Z,10.80
2023-09-21T04:07:32.357Z,9.88
2023-09-21T04:12:25.732Z,9.75
2023-09-21T04:17:19.146Z,9.88
2023-09-21T04:22:13.943Z,9.15
2023-09-21T04:27:07.349Z,10.45
2023-09-21T04:32:02.295Z,10.00
2023-09-21T04:36:55.885Z,10.65
2023-09-21T04:41:50.667Z,9.35
2023-09-21T04:46:44.426Z,10.55
2023-09-21T04:51:39.854Z,9.02
2023-09-21T04:56:33.527Z,9.45
2023-09-21T05:01:29.515Z,10.13
2023-09-21T05:06:24.921Z,9.48
2023-09-21T05:11:18.400Z,10.15
2023-09-21T05:16:11.905Z,9.00
2023-09-21T05:21:06.665Z,9.18
2023-09-21T05:25:59.984Z,8.52
2023-09-21T05:30:55.318Z,8.75
2023-09-21T05:35:55.683Z,8.15
2023-09-21T05:40:50.550Z,8.18
2023-09-21T05:45:43.774Z,8.55
2023-09-21T05:50:37.143Z,9.00
2023-09-21T05:55:30.455Z,8.15
2023-09-21T06:00:25.206Z,8.32
2023-09-21T06:05:20.289Z,7.63
2023-09-21T06:10:14.931Z,7.63
2023-09-21T06:15:09.295Z,6.88
2023-09-21T06:20:04.893Z,7.13
2023-09-21T06:24:58.325Z,7.28
2023-09-21T06:29:51.890Z,7.63
2023-09-21T06:34:45.269Z,7.57
2023-09-21T06:39:39.898Z,8.15
2023-09-21T06:44:33.373Z,7.95
2023-09-21T06:49:28.026Z,7.00
2023-09-21T06:54:24.697Z,7.43
2023-09-21T06:59:19.513Z,6.57
2023-09-21T07:04:12.920Z,6.85
2023-09-21T07:09:06.495Z,6.80
2023-09-21T07:13:59.909Z,7.28
2023-09-21T07:18:54.611Z,6.53
2023-09-21T07:23:47.968Z,6.47
2023-09-21T07:28:41.294Z,6.07
2023-09-21T07:33:34.665Z,5.75
2023-09-21T07:38:29.463Z,5.60
2023-09-21T07:43:22.834Z,5.93
2023-09-21T07:48:17.347Z,6.05
2023-09-21T07:53:11.058Z,6.38
2023-09-21T07:58:08.710Z,6.07
2023-09-21T08:03:01.974Z,5.80
2023-09-21T08:07:55.223Z,5.57
2023-09-21T08:12:49.339Z,5.95
2023-09-21T08:17:44.801Z,6.15
2023-09-21T08:22:38.915Z,5.88
2023-09-21T08:27:32.282Z,6.05
2023-09-21T08:32:25.625Z,5.97
2023-09-21T08:37:20.542Z,6.90
2023-09-21T08:42:14.188Z,6.43
2023-09-21T08:47:27.415Z,6.88
2023-09-21T08:52:29.165Z,6.32
2023-09-21T08:57:22.513Z,6.30
2023-09-21T09:02:16.227Z,5.68
2023-09-21T09:07:09.666Z,5.90
2023-09-21T09:12:04.366Z,4.97
2023-09-21T09:16:57.546Z,6.38
2023-09-21T09:21:53.352Z,6.00
2023-09-21T09:26:46.585Z,6.28
2023-09-21T09:31:43.636Z,5.35
2023-09-21T09:36:39.914Z,5.72
2023-09-21T09:41:33.503Z,6.20
2023-09-21T09:46:28.903Z,5.70
2023-09-21T09:51:32.310Z,5.60
2023-09-21T09:56:28.098Z,5.60
2023-09-21T10:01:23.085Z,5.63
2023-09-21T10:06:19.748Z,5.65
2023-09-21T10:11:16.328Z,5.72
2023-09-21T10:16:14.533Z,5.43
2023-09-21T10:21:33.124Z,5.00
2023-09-21T10:26:27.938Z,5.13
2023-09-21T10:31:26.192Z,5.25
2023-09-21T10:36:21.236Z,5.30
2023-09-21T10:41:36.197Z,4.68
2023-09-21T10:46:33.519Z,5.03
2023-09-21T10:51:32.506Z,5.25
2023-09-21T10:56:26.268Z,5.15
2023-09-21T11:01:22.827Z,5.32
2023-09-21T11:06:17.584Z,4.97
2023-09-21T11:11:13.846Z,5.20
2023-09-21T11:16:07.446Z,4.55
2023-09-21T11:21:02.321Z,5.03
2023-09-21T11:25:55.591Z,4.38
2023-09-21T11:30:52.240Z,4.80
2023-09-21T11:35:47.498Z,4.95
2023-09-21T11:40:42.714Z,5.05
2023-09-21T11:45:37.287Z,4.32
2023-09-21T11:50:33.565Z,4.20
2023-09-21T11:55:28.802Z,5.00
2023-09-21T12:00:48.695Z,4.45
2023-09-21T12:05:44.787Z,3.92
2023-09-21T12:10:38.186Z,4.07
2023-09-21T12:15:33.728Z,4.78
2023-09-21T12:20:27.415Z,4.43
2023-09-21T12:25:21.639Z,4.43
2023-09-21T12:30:17.803Z,4.65
2023-09-21T12:35:18.382Z,4.00
2023-09-21T12:40:13.841Z,4.63
2023-09-21T12:45:08.702Z,4.25
2023-09-21T12:50:02.238Z,4.60
2023-09-21T12:54:57.029Z,4.47
2023-09-21T12:59:51.267Z,3.92
2023-09-21T13:04:46.075Z,4.53
2023-09-21T13:14:41.833Z,4.07
2023-09-21T13:19:35.179Z,4.57
2023-09-21T13:24:28.457Z,4.78
2023-09-21T13:29:21.848Z,4.88
2023-09-21T13:34:16.570Z,4.50
2023-09-21T13:39:10.426Z,4.53
2023-09-21T13:44:04.101Z,4.97
2023-09-21T13:48:58.345Z,4.75
2023-09-21T13:53:53.080Z,4.63
2023-09-21T13:58:46.305Z,4.57
2023-09-21T14:03:39.968Z,4.30
2023-09-21T14:08:33.409Z,4.43
2023-09-21T14:13:28.155Z,4.40
2023-09-21T14:18:21.584Z,4.97
2023-09-21T14:23:17.532Z,5.30
2023-09-21T14:28:11.261Z,5.60
2023-09-21T14:33:08.702Z,6.72
2023-09-21T14:38:02.300Z,6.05
2023-09-21T14:42:56.345Z,6.72
2023-09-21T14:47:49.896Z,5.60
2023-09-21T14:52:44.501Z,5.85
2023-09-21T14:57:37.905Z,5.60
2023-09-21T15:02:32.582Z,5.57
2023-09-21T15:07:27.379Z,5.18
2023-09-21T15:12:22.207Z,5.60
2023-09-21T15:17:15.606Z,5.65
2023-09-21T15:22:09.017Z,6.18
2023-09-21T15:27:02.330Z,5.47
2023-09-21T15:31:57.848Z,6.10
2023-09-21T15:36:51.462Z,5.47
2023-09-21T15:41:44.810Z,5.13
2023-09-21T15:46:39.640Z,5.25
2023-09-21T15:51:34.875Z,5.95
2023-09-21T15:56:28.130Z,6.47
2023-09-21T16:01:21.485Z,5.97
2023-09-21T16:06:14.951Z,5.60
2023-09-21T16:11:09.824Z,5.95
2023-09-21T16:16:06.075Z,5.50
2023-09-21T16:20:59.526Z,8.80
2023-09-21T16:25:53.013Z,7.18
2023-09-21T16:30:48.137Z,6.63
2023-09-21T16:35:41.414Z,7.20
2023-09-21T16:40:36.887Z,7.30
2023-09-21T16:45:33.156Z,8.50
2023-09-21T16:50:28.526Z,8.57
2023-09-21T16:55:24.123Z,8.25
2023-09-21T17:00:18.456Z,8.93
2023-09-21T17:05:11.730Z,8.43
2023-09-21T17:10:07.893Z,7.45
2023-09-21T17:15:01.177Z,7.05
2023-09-21T17:19:55.389Z,5.63
2023-09-21T17:24:52.050Z,5.72
2023-09-21T17:29:47.494Z,5.45
2023-09-21T17:34:41.086Z,5.82
2023-09-21T17:39:34.652Z,6.03
2023-09-21T17:44:29.033Z,5.82
2023-09-21T17:49:23.809Z,6.93
2023-09-21T17:54:17.258Z,6.28
2023-09-21T17:59:10.469Z,6.18
2023-09-21T18:04:04.282Z,6.35
2023-09-21T18:08:59.063Z,5.68
2023-09-21T18:13:52.872Z,5.20
2023-09-21T18:18:48.001Z,4.90
2023-09-21T18:23:42.596Z,5.50
2023-09-21T18:28:38.352Z,5.88
2023-09-21T18:33:31.576Z,5.50
2023-09-21T18:38:27.895Z,5.35
2023-09-21T18:43:21.921Z,5.80
2023-09-21T18:48:16.608Z,5.60
2023-09-21T18:53:09.993Z,5.38
2023-09-21T18:58:03.175Z,5.70
2023-09-21T19:02:56.476Z,5.55
2023-09-21T19:07:51.254Z,5.57
2023-09-21T19:12:44.743Z,4.82
2023-09-21T19:17:40.221Z,4.63
2023-09-21T19:22:35.825Z,5.38
2023-09-21T19:27:31.640Z,4.93
2023-09-21T19:32:25.328Z,5.50
2023-09-21T19:37:19.649Z,5.65
2023-09-21T19:42:13.147Z,5.10
2023-09-21T19:47:08.133Z,4.60
2023-09-21T19:52:01.512Z,5.13
2023-09-21T19:56:55.552Z,7.40
2023-09-21T20:01:48.816Z,4.63
2023-09-21T20:06:46.070Z,6.25
2023-09-21T20:11:39.527Z,6.60
2023-09-21T20:16:32.823Z,6.43
2023-09-21T20:21:27.541Z,4.63
2023-09-21T20:26:22.329Z,4.68
2023-09-21T20:31:15.783Z,4.60
2023-09-21T20:36:09.688Z,4.53
2023-09-21T20:41:02.911Z,5.30
2023-09-21T20:45:57.615Z,5.13
2023-09-21T20:50:51.167Z,4.38
2023-09-21T20:55:44.393Z,4.60
2023-09-21T21:00:37.564Z,4.50
2023-09-21T21:05:32.376Z,4.68
2023-09-21T21:10:25.740Z,4.43
2023-09-21T21:15:19.096Z,4.75
2023-09-21T21:20:13.419Z,4.32
2023-09-21T21:25:09.430Z,4.68
2023-09-21T21:30:04.241Z,4.47
2023-09-21T21:34:57.544Z,4.88
2023-09-21T21:39:50.781Z,4.68
2023-09-21T21:44:45.563Z,4.50
2023-09-21T21:49:38.857Z,4.53
2023-09-21T21:54:32.046Z,5.10
2023-09-21T21:59:25.742Z,4.85
2023-09-21T22:04:20.374Z,4.97
2023-09-21T22:09:14.262Z,5.25
2023-09-21T22:14:08.412Z,4.20
2023-09-21T22:19:01.700Z,4.38
2023-09-21T22:23:56.475Z,4.68
2023-09-21T22:28:49.646Z,5.15
2023-09-21T22:33:42.823Z,4.82
2023-09-21T22:38:37.060Z,4.68
2023-09-21T22:43:33.297Z,5.05
2023-09-21T22:48:26.897Z,4.88
2023-09-21T22:53:21.990Z,4.57
2023-09-21T22:58:15.142Z,4.70
2023-09-21T23:03:09.728Z,4.90
2023-09-21T23:08:06.719Z,4.75
2023-09-21T23:13:00.426Z,4.60
2023-09-21T23:17:53.872Z,4.57
2023-09-21T23:22:50.908Z,4.90
2023-09-21T23:27:44.353Z,4.93
2023-09-21T23:32:38.498Z,4.32
2023-09-21T23:37:31.757Z,4.82
2023-09-21T23:42:29.840Z,5.28
2023-09-21T23:47:23.261Z,4.63
2023-09-21T23:52:17.034Z,4.93
2023-09-21T23:57:10.224Z,5.05
